createdAt,value
2022-11-16T00:01:40.510Z,95317.31
2022-11-16T00:04:08.280Z,95325.34
2022-11-16T00:06:35.986Z,95324.06
2022-11-16T00:09:22.068Z,95317.91
2022-11-16T00:11:51.121Z,95323.94
2022-11-16T00:14:19.637Z,95333.47
2022-11-16T00:16:48.793Z,95338.63
2022-11-16T00:19:16.686Z,95333.00
2022-11-16T00:21:44.499Z,95332.69
2022-11-16T00:24:14.749Z,95340.97
2022-11-16T00:26:42.931Z,95307.22
2022-11-16T00:29:15.050Z,95345.31
2022-11-16T00:31:42.900Z,95339.16
2022-11-16T00:34:12.069Z,95327.44
2022-11-16T00:36:39.817Z,95323.75
2022-11-16T00:39:07.891Z,95326.84
2022-11-16T00:41:35.577Z,95316.69
2022-11-16T00:44:03.373Z,95305.91
2022-11-16T00:46:31.115Z,95325.22
2022-11-16T00:48:58.854Z,95330.13
2022-11-16T00:51:28.111Z,95333.91
2022-11-16T00:53:55.920Z,95323.75
2022-11-16T00:56:23.664Z,95344.06
2022-11-16T00:58:51.552Z,95339.75
2022-11-16T01:01:19.515Z,95362.59
2022-11-16T01:03:47.721Z,95360.50
2022-11-16T01:06:16.680Z,95368.56
2022-11-16T01:08:46.424Z,95359.50
2022-11-16T01:11:33.755Z,95373.38
2022-11-16T01:14:04.202Z,95366.44
2022-11-16T01:16:32.249Z,95368.03
2022-11-16T01:19:00.163Z,95368.84
2022-11-16T01:21:28.528Z,95366.25
2022-11-16T01:23:58.093Z,95365.72
2022-11-16T01:26:26.139Z,95373.69
2022-11-16T01:28:53.974Z,95377.94
2022-11-16T01:31:22.145Z,95377.09
2022-11-16T01:33:49.971Z,95388.00
2022-11-16T01:36:17.738Z,95390.19
2022-11-16T01:38:46.651Z,95399.25
2022-11-16T01:41:18.204Z,95395.00
2022-11-16T01:43:55.334Z,95393.41
2022-11-16T01:46:23.694Z,95401.47
2022-11-16T01:48:55.509Z,95396.13
2022-11-16T01:51:24.311Z,95393.03
2022-11-16T01:53:52.469Z,95398.78
2022-11-16T01:56:22.685Z,95402.00
2022-11-16T01:58:50.992Z,95415.41
2022-11-16T02:01:18.818Z,95416.56
2022-11-16T02:03:46.629Z,95413.97
2022-11-16T02:06:31.654Z,95411.25
2022-11-16T02:09:32.789Z,95412.66
2022-11-16T02:12:16.814Z,95408.94
2022-11-16T02:15:00.794Z,95404.41
2022-11-16T02:17:41.619Z,95393.22
2022-11-16T02:20:31.734Z,95396.97
2022-11-16T02:23:25.489Z,95375.13
2022-11-16T02:26:05.648Z,95381.47
2022-11-16T02:28:49.410Z,95384.69
2022-11-16T02:31:24.673Z,95383.06
2022-11-16T02:33:56.423Z,95365.66
2022-11-16T02:36:26.188Z,95371.59
2022-11-16T02:38:59.817Z,95370.28
2022-11-16T02:41:30.446Z,95382.06
2022-11-16T02:44:03.358Z,95378.28
2022-11-16T02:46:37.803Z,95379.84
2022-11-16T02:49:11.430Z,95386.28
2022-11-16T02:51:41.103Z,95390.03
2022-11-16T02:54:12.969Z,95391.03
2022-11-16T02:56:49.734Z,95400.34
2022-11-16T02:59:18.041Z,95395.25
2022-11-16T03:01:53.199Z,95392.50
2022-11-16T03:04:26.626Z,95380.28
2022-11-16T03:06:56.970Z,95373.53
2022-11-16T03:09:29.590Z,95386.63
2022-11-16T03:12:01.381Z,95383.44
2022-11-16T03:14:35.022Z,95358.59
2022-11-16T03:17:08.224Z,95366.91
2022-11-16T03:19:42.582Z,95372.78
2022-11-16T03:22:15.527Z,95355.78
2022-11-16T03:24:44.050Z,95349.34
2022-11-16T03:27:22.308Z,95353.88
2022-11-16T03:30:00.091Z,95354.69
2022-11-16T03:32:35.129Z,95354.59
2022-11-16T03:35:09.122Z,95377.75
2022-11-16T03:37:38.505Z,95372.19
2022-11-16T03:40:08.624Z,95374.91
2022-11-16T03:42:37.668Z,95360.75
2022-11-16T03:45:06.510Z,95365.06
2022-11-16T03:47:35.573Z,95362.81
2022-11-16T03:50:03.412Z,95365.72
2022-11-16T03:52:31.264Z,95367.91
2022-11-16T03:54:58.998Z,95376.63
2022-11-16T03:57:26.793Z,95375.25
2022-11-16T03:59:54.509Z,95390.91
2022-11-16T04:02:22.615Z,95384.28
2022-11-16T04:05:09.276Z,95383.50
2022-11-16T04:07:54.533Z,95379.47
2022-11-16T04:10:39.916Z,95367.25
2022-11-16T04:13:28.774Z,95366.72
2022-11-16T04:16:14.349Z,95366.72
2022-11-16T04:18:59.299Z,95361.91
2022-11-16T04:21:48.976Z,95364.53
2022-11-16T04:24:19.800Z,95366.00
2022-11-16T04:27:09.130Z,95362.59
2022-11-16T04:29:37.280Z,95361.28
2022-11-16T04:32:23.113Z,95352.22
2022-11-16T04:35:08.368Z,95360.97
2022-11-16T04:37:53.428Z,95354.28
2022-11-16T04:40:22.843Z,95358.31
2022-11-16T04:42:53.724Z,95363.59
2022-11-16T04:45:39.401Z,95356.75
2022-11-16T04:48:08.132Z,95375.31
2022-11-16T04:50:36.835Z,95360.31
2022-11-16T04:53:07.076Z,95364.59
2022-11-16T04:55:35.226Z,95356.34
2022-11-16T04:58:04.113Z,95359.06
2022-11-16T05:00:32.116Z,95355.03
2022-11-16T05:03:01.608Z,95354.28
2022-11-16T05:05:30.297Z,95354.28
2022-11-16T05:07:58.161Z,95349.00
2022-11-16T05:10:27.351Z,95347.41
2022-11-16T05:12:55.095Z,95343.50
2022-11-16T05:15:22.854Z,95344.81
2022-11-16T05:17:51.113Z,95345.81
2022-11-16T05:20:36.854Z,95339.97
2022-11-16T05:23:04.628Z,95349.63
2022-11-16T05:25:36.720Z,95340.59
2022-11-16T05:28:05.055Z,95348.59
2022-11-16T05:30:32.801Z,95347.53
2022-11-16T05:33:03.267Z,95351.25
2022-11-16T05:35:30.973Z,95354.16
2022-11-16T05:37:58.819Z,95352.84
2022-11-16T05:40:26.546Z,95356.59
2022-11-16T05:42:55.605Z,95362.22
2022-11-16T05:45:23.321Z,95352.03
2022-11-16T05:47:51.030Z,95356.06
2022-11-16T05:50:18.863Z,95359.78
2022-11-16T05:52:46.616Z,95357.94
2022-11-16T05:55:14.348Z,95346.94
2022-11-16T05:57:42.104Z,95354.41
2022-11-16T06:00:12.740Z,95366.69
2022-11-16T06:02:40.485Z,95370.47
2022-11-16T06:05:08.796Z,95367.56
2022-11-16T06:10:21.483Z,95365.94
2022-11-16T06:12:49.539Z,95372.63
2022-11-16T06:15:18.976Z,95374.50
2022-11-16T06:17:46.974Z,95370.22
2022-11-16T06:20:14.671Z,95371.28
2022-11-16T06:22:42.383Z,95363.53
2022-11-16T06:25:11.816Z,95365.31
2022-11-16T06:27:40.051Z,95364.81
2022-11-16T06:30:08.916Z,95372.00
2022-11-16T06:32:38.010Z,95374.63
2022-11-16T06:35:06.810Z,95371.34
2022-11-16T06:37:34.992Z,95372.47
2022-11-16T06:40:02.713Z,95380.09
2022-11-16T06:42:30.419Z,95379.88
2022-11-16T06:44:58.136Z,95375.13
2022-11-16T06:47:25.876Z,95379.41
2022-11-16T06:49:55.221Z,95390.59
2022-11-16T06:52:22.974Z,95390.66
2022-11-16T06:54:50.663Z,95387.75
2022-11-16T06:57:18.395Z,95380.00
2022-11-16T06:59:46.159Z,95383.28
2022-11-16T07:02:14.255Z,95382.56
2022-11-16T07:04:42.020Z,95387.06
2022-11-16T07:07:11.139Z,95391.72
2022-11-16T07:09:38.957Z,95390.72
2022-11-16T07:12:07.147Z,95396.84
2022-11-16T07:14:34.893Z,95381.25
2022-11-16T07:17:08.004Z,95378.38
2022-11-16T07:19:37.861Z,95376.50
2022-11-16T07:22:05.688Z,95399.50
2022-11-16T07:24:34.905Z,95383.88
2022-11-16T07:27:02.678Z,95385.97
2022-11-16T07:29:31.262Z,95388.94
2022-11-16T07:31:58.994Z,95389.50
2022-11-16T07:34:27.387Z,95393.53
2022-11-16T07:36:55.086Z,95402.28
2022-11-16T07:39:22.807Z,95396.41
2022-11-16T07:41:53.533Z,95407.28
2022-11-16T07:44:21.289Z,95409.28
2022-11-16T07:46:49.101Z,95411.66
2022-11-16T07:49:20.232Z,95421.22
2022-11-16T07:51:48.212Z,95413.06
2022-11-16T07:54:16.879Z,95420.06
2022-11-16T07:56:44.943Z,95416.75
2022-11-16T07:59:14.009Z,95431.28
2022-11-16T08:01:41.864Z,95430.72
2022-11-16T08:04:09.593Z,95435.56
2022-11-16T08:06:37.335Z,95430.78
2022-11-16T08:09:05.147Z,95437.72
2022-11-16T08:11:32.908Z,95433.53
2022-11-16T08:14:00.646Z,95444.56
2022-11-16T08:16:29.797Z,95443.38
2022-11-16T08:18:57.510Z,95442.47
2022-11-16T08:38:36.518Z,95401.88
2022-11-16T08:43:50.694Z,95418.50
2022-11-16T08:46:19.039Z,95410.66
2022-11-16T08:48:47.214Z,95415.94
2022-11-16T08:51:19.720Z,95411.50
2022-11-16T08:53:50.090Z,95415.59
2022-11-16T08:56:19.469Z,95412.50
2022-11-16T08:58:50.279Z,95411.53
2022-11-16T09:01:22.113Z,95400.81
2022-11-16T09:03:50.542Z,95406.00
2022-11-16T09:06:18.974Z,95403.59
2022-11-16T09:08:47.642Z,95413.22
2022-11-16T09:11:19.363Z,95405.66
2022-11-16T09:13:48.906Z,95413.16
2022-11-16T09:16:17.974Z,95402.94
2022-11-16T09:18:47.094Z,95413.03
2022-11-16T09:21:18.933Z,95405.97
2022-11-16T09:23:47.383Z,95410.56
2022-11-16T09:26:18.899Z,95410.84
2022-11-16T09:28:46.650Z,95409.84
2022-11-16T09:31:20.299Z,95422.94
2022-11-16T09:33:51.017Z,95412.56
2022-11-16T09:36:20.725Z,95421.22
2022-11-16T09:39:29.091Z,95412.69
2022-11-16T09:41:49.100Z,95418.84
2022-11-16T09:44:34.377Z,95418.06
2022-11-16T09:47:02.995Z,95406.81
2022-11-16T09:49:33.567Z,95430.91
2022-11-16T09:52:04.503Z,95423.44
2022-11-16T09:54:36.890Z,95429.63
2022-11-16T09:57:12.734Z,95422.97
2022-11-16T09:59:44.543Z,95420.31
2022-11-16T10:02:23.530Z,95425.34
2022-11-16T10:04:58.288Z,95426.13
2022-11-16T10:07:32.830Z,95422.69
2022-11-16T10:10:00.897Z,95422.28
2022-11-16T10:12:36.483Z,95411.88
2022-11-16T10:15:36.419Z,95406.00
2022-11-16T10:18:22.522Z,95406.53
2022-11-16T10:21:10.639Z,95400.56
2022-11-16T10:23:50.868Z,95395.38
2022-11-16T10:26:30.359Z,95388.63
2022-11-16T10:29:15.308Z,95392.50
2022-11-16T10:31:58.180Z,95381.75
2022-11-16T10:34:29.221Z,95374.28
2022-11-16T10:37:03.204Z,95369.91
2022-11-16T10:39:33.662Z,95379.34
2022-11-16T10:42:07.864Z,95367.28
2022-11-16T10:44:41.321Z,95371.06
2022-11-16T10:47:16.543Z,95360.91
2022-11-16T10:49:51.917Z,95356.19
2022-11-16T10:52:19.829Z,95363.94
2022-11-16T10:54:47.518Z,95369.81
2022-11-16T10:57:15.379Z,95367.41
2022-11-16T10:59:47.273Z,95371.13
2022-11-16T11:02:34.585Z,95372.38
2022-11-16T11:05:05.257Z,95368.88
2022-11-16T11:07:35.025Z,95358.13
2022-11-16T11:10:03.539Z,95328.13
2022-11-16T11:12:40.146Z,95357.63
2022-11-16T11:15:26.429Z,95355.50
2022-11-16T11:18:14.354Z,95351.16
2022-11-16T11:20:45.257Z,95348.97
2022-11-16T11:23:16.950Z,95348.47
2022-11-16T11:25:53.047Z,95346.38
2022-11-16T11:28:26.166Z,95347.59
2022-11-16T11:31:00.462Z,95347.44
2022-11-16T11:33:30.655Z,95345.47
2022-11-16T11:36:03.131Z,95344.84
2022-11-16T11:38:31.683Z,95330.78
2022-11-16T11:41:01.212Z,95328.09
2022-11-16T11:43:30.946Z,95345.25
2022-11-16T11:46:07.375Z,95340.56
2022-11-16T11:48:42.424Z,95325.59
2022-11-16T11:51:21.109Z,95324.56
2022-11-16T11:53:56.109Z,95322.94
2022-11-16T11:56:24.170Z,95312.22
2022-11-16T11:58:52.389Z,95303.59
2022-11-16T12:02:02.291Z,95320.75
2022-11-16T12:05:08.113Z,95313.53
2022-11-16T12:07:56.215Z,95303.09
2022-11-16T12:10:34.647Z,95310.09
2022-11-16T12:13:18.642Z,95319.72
2022-11-16T12:16:00.110Z,95318.16
2022-11-16T12:18:46.097Z,95312.78
2022-11-16T12:21:19.254Z,95302.84
2022-11-16T12:24:04.880Z,95306.88
2022-11-16T12:26:46.052Z,95305.19
2022-11-16T12:29:26.023Z,95302.75
2022-11-16T12:32:13.734Z,95300.06
2022-11-16T12:34:56.145Z,95276.22
2022-11-16T12:37:31.701Z,95293.75
2022-11-16T12:40:17.766Z,95294.81
2022-11-16T12:42:54.148Z,95295.03
2022-11-16T12:45:43.989Z,95285.84
2022-11-16T12:48:50.993Z,95279.09
2022-11-16T12:51:34.097Z,95257.78
2022-11-16T12:54:18.424Z,95264.81
2022-11-16T12:56:56.129Z,95249.88
2022-11-16T12:59:37.368Z,95247.56
2022-11-16T13:02:18.862Z,95253.53
2022-11-16T13:04:51.335Z,95243.41
2022-11-16T13:07:25.926Z,95249.97
2022-11-16T13:10:00.221Z,95240.84
2022-11-16T13:12:30.707Z,95243.09
2022-11-16T13:15:01.514Z,95242.00
2022-11-16T13:17:32.029Z,95237.97
2022-11-16T13:20:20.353Z,95230.50
2022-11-16T13:22:55.166Z,95227.97
2022-11-16T13:25:33.025Z,95215.19
2022-11-16T13:28:11.712Z,95226.41
2022-11-16T13:30:51.513Z,95220.97
2022-11-16T13:33:29.157Z,95212.72
2022-11-16T13:35:57.071Z,95209.47
2022-11-16T13:38:54.080Z,95204.63
2022-11-16T13:41:32.319Z,95194.78
2022-11-16T13:44:00.465Z,95199.06
2022-11-16T13:46:55.276Z,95191.28
2022-11-16T13:49:28.634Z,95188.66
2022-11-16T13:52:11.362Z,95196.72
2022-11-16T13:54:50.180Z,95199.44
2022-11-16T13:57:23.964Z,95197.50
2022-11-16T14:00:08.380Z,95188.34
2022-11-16T14:02:38.657Z,95189.41
2022-11-16T14:05:14.685Z,95190.97
2022-11-16T14:07:44.959Z,95189.91
2022-11-16T14:10:33.176Z,95196.88
2022-11-16T14:13:04.284Z,95190.53
2022-11-16T14:15:35.294Z,95175.28
2022-11-16T14:18:36.965Z,95177.09
2022-11-16T14:21:16.267Z,95185.72
2022-11-16T14:24:05.752Z,95184.19
2022-11-16T14:26:46.533Z,95182.59
2022-11-16T14:29:29.871Z,95170.53
2022-11-16T14:31:59.478Z,95164.41
2022-11-16T14:34:31.323Z,95165.25
2022-11-16T14:37:00.369Z,95167.38
2022-11-16T14:39:32.779Z,95170.34
2022-11-16T14:42:04.162Z,95175.16
2022-11-16T14:44:39.126Z,95172.75
2022-11-16T14:47:17.031Z,95173.56
2022-11-16T14:49:47.804Z,95158.00
2022-11-16T14:52:17.996Z,95170.34
2022-11-16T14:54:53.101Z,95170.88
2022-11-16T14:57:23.035Z,95167.81
2022-11-16T15:00:09.330Z,95179.97
2022-11-16T15:02:37.902Z,95172.63
2022-11-16T15:05:06.413Z,95169.13
2022-11-16T15:07:34.624Z,95162.94
2022-11-16T15:10:02.425Z,95166.69
2022-11-16T15:12:46.327Z,95161.06
2022-11-16T15:15:18.323Z,95155.47
2022-11-16T15:17:48.219Z,95152.44
2022-11-16T15:20:20.123Z,95149.25
2022-11-16T15:22:49.006Z,95144.72
2022-11-16T15:25:29.734Z,95138.81
2022-11-16T15:27:59.263Z,95137.72
2022-11-16T15:30:30.397Z,95144.09
2022-11-16T15:32:58.429Z,95151.25
2022-11-16T15:35:29.838Z,95141.63
2022-11-16T15:38:05.685Z,95130.88
2022-11-16T15:40:34.796Z,95138.09
2022-11-16T15:43:05.869Z,95135.13
2022-11-16T15:45:35.732Z,95146.41
2022-11-16T15:48:05.080Z,95141.56
2022-11-16T15:50:33.169Z,95134.63
2022-11-16T15:53:00.979Z,95144.22
2022-11-16T15:55:35.218Z,95138.59
2022-11-16T15:58:13.454Z,95137.78
2022-11-16T16:00:43.346Z,95142.66
2022-11-16T16:03:21.616Z,95136.72
2022-11-16T16:05:49.894Z,95131.41
2022-11-16T16:08:27.193Z,95129.72
2022-11-16T16:11:04.083Z,95131.47
2022-11-16T16:13:35.041Z,95131.78
2022-11-16T16:16:29.988Z,95118.97
2022-11-16T16:19:03.813Z,95122.34
2022-11-16T16:21:44.302Z,95125.97
2022-11-16T16:24:36.879Z,95125.03
2022-11-16T16:27:11.923Z,95120.31
2022-11-16T16:29:39.915Z,95121.16
2022-11-16T16:32:13.550Z,95117.06
2022-11-16T16:34:42.560Z,95119.22
2022-11-16T16:37:13.024Z,95106.88
2022-11-16T16:39:42.188Z,95115.91
2022-11-16T16:42:12.900Z,95114.34
2022-11-16T16:44:41.176Z,95102.59
2022-11-16T16:47:10.780Z,95117.59
2022-11-16T16:49:39.121Z,95113.31
2022-11-16T16:52:07.952Z,95105.34
2022-11-16T16:54:35.959Z,95106.41
2022-11-16T16:57:04.535Z,95106.41
2022-11-16T16:59:32.798Z,95113.84
2022-11-16T17:02:01.796Z,95110.41
2022-11-16T17:04:34.031Z,95107.50
2022-11-16T17:07:03.059Z,95102.94
2022-11-16T17:09:31.997Z,95099.22
2022-11-16T17:12:00.886Z,95096.56
2022-11-16T17:14:29.664Z,95099.47
2022-11-16T17:16:58.095Z,95098.41
2022-11-16T17:19:26.895Z,95103.94
2022-11-16T17:21:56.870Z,95093.91
2022-11-16T17:24:26.164Z,95090.63
2022-11-16T17:26:56.137Z,95098.53
2022-11-16T17:29:25.750Z,95090.44
2022-11-16T17:31:55.233Z,95077.44
2022-11-16T17:34:24.536Z,95102.03
2022-11-16T17:36:53.843Z,95097.78
2022-11-16T17:39:25.705Z,95099.31
2022-11-16T17:41:55.257Z,95103.88
2022-11-16T17:44:25.112Z,95090.75
2022-11-16T17:46:55.151Z,95090.72
2022-11-16T17:49:24.386Z,95097.56
2022-11-16T17:51:53.187Z,95104.00
2022-11-16T17:54:22.509Z,95099.09
2022-11-16T17:56:54.386Z,95096.38
2022-11-16T17:59:29.168Z,95107.56
2022-11-16T18:01:59.032Z,95082.84
2022-11-16T18:04:27.165Z,95087.16
2022-11-16T18:06:56.041Z,95069.47
2022-11-16T18:09:24.205Z,95051.09
2022-11-16T18:11:53.370Z,95055.63
2022-11-16T18:14:21.307Z,95049.84
2022-11-16T18:16:49.099Z,95043.44
2022-11-16T18:19:18.326Z,95027.91
2022-11-16T18:21:46.677Z,95024.72
2022-11-16T18:24:15.206Z,95023.34
2022-11-16T18:26:43.019Z,95013.72
2022-11-16T18:29:15.761Z,95012.59
2022-11-16T18:31:43.544Z,95017.44
2022-11-16T18:34:13.287Z,95017.75
2022-11-16T18:36:41.233Z,95006.56
2022-11-16T18:39:09.314Z,95006.50
2022-11-16T18:41:38.285Z,95000.31
2022-11-16T18:44:06.308Z,95000.00
2022-11-16T18:46:35.444Z,94994.91
2022-11-16T18:49:03.186Z,94993.63
2022-11-16T18:51:30.974Z,94987.78
2022-11-16T18:53:58.746Z,94984.53
2022-11-16T18:56:27.212Z,94971.69
2022-11-16T18:58:55.090Z,94975.72
2022-11-16T19:01:24.677Z,94965.91
2022-11-16T19:03:55.477Z,94960.09
2022-11-16T19:06:24.266Z,94962.44
2022-11-16T19:08:59.449Z,94963.19
2022-11-16T19:11:28.721Z,94957.34
2022-11-16T19:13:59.999Z,94961.66
2022-11-16T19:16:28.287Z,94943.75
2022-11-16T19:18:57.929Z,94961.66
2022-11-16T19:21:26.162Z,94951.00
2022-11-16T19:23:55.865Z,94957.38
2022-11-16T19:26:25.779Z,94957.75
2022-11-16T19:28:54.500Z,94968.25
2022-11-16T19:31:24.061Z,94977.88
2022-11-16T19:33:56.157Z,94993.13
2022-11-16T19:36:25.530Z,94989.09
2022-11-16T19:38:53.746Z,94990.16
2022-11-16T19:41:22.595Z,94974.16
2022-11-16T19:43:52.689Z,94977.34
2022-11-16T19:46:21.680Z,94973.91
2022-11-16T19:48:50.226Z,94952.75
2022-11-16T19:51:20.300Z,94956.81
2022-11-16T19:53:50.045Z,94954.09
2022-11-16T19:56:20.349Z,94948.31
2022-11-16T19:58:48.753Z,94942.44
2022-11-16T20:01:18.420Z,94939.72
2022-11-16T20:03:46.847Z,94937.50
2022-11-16T20:06:17.254Z,94932.56
2022-11-16T20:08:50.156Z,94945.09
2022-11-16T20:11:20.683Z,94936.50
2022-11-16T20:13:49.218Z,94956.19
2022-11-16T20:16:18.130Z,94958.84
2022-11-16T20:18:46.939Z,94950.78
2022-11-16T20:21:20.022Z,94958.63
2022-11-16T20:23:49.976Z,94947.06
2022-11-16T20:26:18.227Z,94952.81
2022-11-16T20:28:46.444Z,94926.25
2022-11-16T20:31:15.882Z,94960.19
2022-11-16T20:33:44.549Z,94938.34
2022-11-16T20:36:13.063Z,94927.25
2022-11-16T20:38:41.004Z,94947.00
2022-11-16T20:41:11.823Z,94942.44
2022-11-16T20:43:40.406Z,94938.47
2022-11-16T20:46:09.097Z,94940.81
2022-11-16T20:48:37.453Z,94942.91
2022-11-16T20:51:06.065Z,94942.03
2022-11-16T20:53:34.549Z,94938.06
2022-11-16T20:56:03.987Z,94928.47
2022-11-16T20:58:33.863Z,94928.97
2022-11-16T21:01:01.955Z,94924.13
2022-11-16T21:03:30.217Z,94928.28
2022-11-16T21:05:58.766Z,94924.31
2022-11-16T21:08:27.331Z,94919.00
2022-11-16T21:10:55.517Z,94921.47
2022-11-16T21:13:40.886Z,94929.19
2022-11-16T21:16:12.286Z,94932.41
2022-11-16T21:18:41.397Z,94924.44
2022-11-16T21:21:12.201Z,94932.41
2022-11-16T21:23:43.123Z,94931.34
2022-11-16T21:26:14.152Z,94920.47
2022-11-16T21:28:44.711Z,94928.84
2022-11-16T21:31:16.456Z,94929.09
2022-11-16T21:33:45.513Z,94922.66
2022-11-16T21:36:14.851Z,94923.78
2022-11-16T21:38:43.458Z,94942.19
2022-11-16T21:41:13.120Z,94943.84
2022-11-16T21:43:41.497Z,94946.56
2022-11-16T21:46:16.967Z,94940.25
2022-11-16T21:48:45.446Z,94935.13
2022-11-16T21:51:14.543Z,94935.72
2022-11-16T21:53:42.644Z,94929.09
2022-11-16T21:56:13.927Z,94931.50
2022-11-16T21:58:42.599Z,94934.97
2022-11-16T22:01:12.007Z,94933.91
2022-11-16T22:03:41.647Z,94929.66
2022-11-16T22:06:32.308Z,94918.97
2022-11-16T22:09:00.391Z,94913.94
2022-11-16T22:11:28.407Z,94912.38
2022-11-16T22:13:56.298Z,94902.53
2022-11-16T22:16:24.362Z,94882.13
2022-11-16T22:18:53.640Z,94919.53
2022-11-16T22:21:21.517Z,94905.72
2022-11-16T22:23:49.663Z,94911.03
2022-11-16T22:26:18.147Z,94906.78
2022-11-16T22:28:46.085Z,94896.63
2022-11-16T22:31:16.364Z,94908.13
2022-11-16T22:33:44.264Z,94900.97
2022-11-16T22:36:13.901Z,94888.28
2022-11-16T22:38:41.831Z,94882.72
2022-11-16T22:41:10.642Z,94831.53
2022-11-16T22:43:39.133Z,94886.13
2022-11-16T22:46:07.648Z,94893.84
2022-11-16T22:48:37.556Z,94893.03
2022-11-16T22:51:07.853Z,94866.47
2022-11-16T22:53:37.655Z,94845.22
2022-11-16T22:56:07.777Z,94861.47
2022-11-16T22:58:35.817Z,94874.16
2022-11-16T23:01:04.535Z,94902.06
2022-11-16T23:03:32.763Z,94904.78
2022-11-16T23:06:00.997Z,94910.34
2022-11-16T23:08:29.834Z,94912.50
2022-11-16T23:11:21.592Z,94886.16
2022-11-16T23:14:07.345Z,94849.59
2022-11-16T23:16:35.728Z,94847.88
2022-11-16T23:19:24.038Z,94855.59
2022-11-16T23:22:09.065Z,94879.69
2022-11-16T23:24:53.770Z,94881.09
2022-11-16T23:27:32.332Z,94873.16
2022-11-16T23:30:05.370Z,94898.78
2022-11-16T23:32:36.039Z,94904.06
2022-11-16T23:35:04.011Z,94940.97
2022-11-16T23:37:31.959Z,94951.66
2022-11-16T23:40:00.110Z,94940.97
2022-11-16T23:42:47.303Z,94925.47
2022-11-16T23:45:15.387Z,94881.28
2022-11-16T23:47:43.289Z,94859.44
2022-11-16T23:50:11.160Z,94847.78
2022-11-16T23:52:39.051Z,94842.44
2022-11-16T23:55:08.005Z,94866.44
2022-11-16T23:57:37.304Z,94865.63
